ROMMA est une association bénévole à but non lucratif. Votre soutien est indispensable : ADHERER à ROMMA ou FAIRE un DON

St-Christophe/Guiers - Berland - (38, Isère)

Massif de la Chartreuse (533 m)   Longitude: 05° 46' 44" E   Latitude: 45° 25' 43" N Station partenaire n°32
 

Détail journalier du     <<     >>

Température Precipitation Humidité Pression Vent Dir Rafale Dir. rafale Ensol.
Heure (°C) (mm) (%) (hPa) (km/h) (km/h) (min)
01:00 6.909010222ENE10E0
02:00 6.209010222ENE8NE0
03:00 5.809110221ENE6ENE0
04:00 5.409110212ENE6ENE0
05:00 5.209210212ENE6ENE0
06:00 4.709310211---5ENE0
07:00 4.7094102106ENE0
08:00 5.4094102200---0
09:00 7.0092102200---30
10:00 9.308510211SO6SO60
11:00 11.807710212---10SSO60
12:00 13.807610205ONO21NNE55
13:00 15.605910204O15ONO60
14:00 16.806110194ONO16ONO60
15:00 17.605610196SO19ONO60
16:00 18.205410186SSO16O60
17:00 19.105510185O13ONO60
18:00 19.205110186O18SO60
19:00 18.405510176O15OSO60
20:00 15.806110188SO18SO50
21:00 13.806710192SO21SO0
22:00 12.207210201---13S0
23:00 11.007710202E8E0
minuit 10.208010204NE10NNE0

Graphique du 17-04-2019

 

Serveur OMMA